Main page
METAR-TAF:

METAR-TAF

Airports :

Chatham Municipal Airport

Chatham, Massachusetts, United States

latitude: 41-41-15N, longitude: 069-59-36W, elevation: 66 ft

Current weather observation

The report was made 20 minutes ago, at 16:52 UTC
Wind 15 mph from the West/Southwest with gusts up to 37 mph
Temperature 46°F
Humidity 71%
Pressure 29.31 in. Hg
Visibility: 10 miles
Clear sky

METAR: KCQX 271652Z AUTO 24013G32KT 10SM CLR 08/03 A2931 RMK AO2 PK WND 24032/1646 SLP925 T00780033

Time: 12:12 (17:12 UTC)


TAF: missing

Weather observations and forecasts of more than 4000 airports (METAR and TAF reports).

The available stations are represented by yellow and red dots on the map.

Hover mouse over dot to see the name of the station.

Then click to see weather observations and forecasts.

To change the map : click on the green buttons with a black cross to zoom in, on the green button with a dash to zoom out, or on the green arrows for adjacent maps.


METAR-TAF: